Cold Springs, Nevada
Current Conditions -  °F | °C
As of 4:15 PM on Tuesday 25 Nov 2014 (Local Time) from KRTS Reporting Station
Clear Clear  
Wind Chill: 59°   Ceiling: Unl
Heat Index: 59°   Visibility: 10mi
Dew Point: 27°   Wind: 8mph
Humidity: 29%   Direction: 320°NW
Pressure: 30.43"   Gusts: NA
Location:  39.7378°N, 119.889°W
Report Text: KRTS 260015Z AUTO 32007KT 10SM CLR 15/M03 A3043 RMK AO2
Loading
Personal Weather Stations






























Interactive Weather Map New forecast layout! Learn more

10-Day Weather Forecast

Advertisements
Track Severe Weather on mobile